TAF KROW
KROW 081741Z 0818/0918 VRB06KT P6SM BKN250 FM082000 19009KT P6SM BKN200 FM090000 22008KT P6SM BKN250 FM090900 VRB05KT P6SM SCT250=
METAR KROW
WC KROW
WS KROW
WV KROW